createdAt,value
2022-11-28T00:04:37.660Z,8.63
2022-11-28T00:09:41.176Z,7.90
2022-11-28T00:14:46.017Z,6.03
2022-11-28T00:19:49.500Z,8.60
2022-11-28T00:24:52.979Z,6.20
2022-11-28T00:29:58.138Z,6.03
2022-11-28T00:35:01.684Z,5.73
2022-11-28T00:40:05.438Z,7.23
2022-11-28T00:45:11.584Z,5.40
2022-11-28T00:50:15.064Z,4.63
2022-11-28T00:55:18.532Z,6.13
2022-11-28T01:00:23.744Z,7.73
2022-11-28T01:05:27.153Z,4.70
2022-11-28T01:10:30.695Z,7.20
2022-11-28T01:15:35.851Z,6.30
2022-11-28T01:20:39.157Z,8.17
2022-11-28T01:25:42.468Z,7.17
2022-11-28T01:30:47.145Z,7.63
2022-11-28T01:35:57.087Z,6.20
2022-11-28T01:41:00.608Z,5.93
2022-11-28T01:46:06.194Z,6.90
2022-11-28T01:51:10.726Z,6.90
2022-11-28T01:56:15.568Z,8.80
2022-11-28T02:01:20.961Z,8.17
2022-11-28T02:06:25.690Z,8.70
2022-11-28T02:11:48.848Z,8.57
2022-11-28T02:17:00.660Z,9.40
2022-11-28T02:22:06.832Z,8.50
2022-11-28T02:27:29.355Z,6.80
2022-11-28T02:32:50.549Z,9.50
2022-11-28T02:37:59.235Z,9.27
2022-11-28T02:43:06.559Z,8.57
2022-11-28T02:48:14.277Z,6.67
2022-11-28T02:53:20.431Z,8.03
2022-11-28T02:58:24.071Z,8.73
2022-11-28T03:03:38.137Z,7.90
2022-11-28T03:08:49.460Z,8.27
2022-11-28T03:13:55.572Z,9.57
2022-11-28T03:19:04.975Z,9.30
2022-11-28T03:24:11.952Z,9.60
2022-11-28T03:29:18.153Z,10.40
2022-11-28T03:34:24.676Z,7.90
2022-11-28T03:39:31.696Z,7.20
2022-11-28T03:44:39.347Z,8.40
2022-11-28T03:49:47.784Z,8.57
2022-11-28T03:54:54.367Z,7.23
2022-11-28T03:59:59.178Z,6.37
2022-11-28T04:05:06.406Z,7.63
2022-11-28T04:10:15.015Z,5.77
2022-11-28T04:15:20.984Z,7.30
2022-11-28T04:20:30.061Z,5.30
2022-11-28T04:25:37.067Z,4.20
2022-11-28T04:30:42.438Z,3.50
2022-11-28T04:35:49.889Z,3.77
2022-11-28T04:40:55.032Z,4.57
2022-11-28T04:46:01.114Z,4.13
2022-11-28T04:51:10.831Z,5.63
2022-11-28T04:56:18.988Z,5.23
2022-11-28T05:01:25.567Z,6.53
2022-11-28T05:06:31.624Z,6.10
2022-11-28T05:11:35.201Z,6.40
2022-11-28T05:16:38.641Z,5.77
2022-11-28T05:21:43.671Z,6.30
2022-11-28T05:26:46.967Z,5.50
2022-11-28T05:31:50.794Z,4.97
2022-11-28T05:36:55.691Z,5.40
2022-11-28T05:41:59.495Z,7.60
2022-11-28T05:47:03.054Z,6.40
2022-11-28T05:52:08.045Z,5.63
2022-11-28T05:57:11.409Z,5.33
2022-11-28T06:02:14.807Z,4.43
2022-11-28T06:07:19.979Z,4.60
2022-11-28T06:12:23.454Z,4.67
2022-11-28T06:17:27.143Z,4.97
2022-11-28T06:22:31.632Z,5.13
2022-11-28T06:27:35.788Z,3.63
2022-11-28T06:32:39.037Z,5.00
2022-11-28T06:37:43.782Z,4.83
2022-11-28T06:42:50.398Z,5.80
2022-11-28T06:47:53.899Z,4.33
2022-11-28T06:52:58.520Z,4.90
2022-11-28T06:58:01.852Z,3.07
2022-11-28T07:03:05.492Z,4.30
2022-11-28T07:08:10.314Z,5.20
2022-11-28T07:13:13.641Z,5.17
2022-11-28T07:18:16.976Z,5.20
2022-11-28T07:23:21.702Z,5.30
2022-11-28T07:28:25.452Z,5.33
2022-11-28T07:33:28.971Z,5.70
2022-11-28T07:38:34.012Z,4.57
2022-11-28T07:43:37.339Z,4.83
2022-11-28T07:48:40.947Z,4.13
2022-11-28T07:53:45.768Z,5.97
2022-11-28T07:58:49.292Z,4.87
2022-11-28T08:03:53.017Z,5.90
2022-11-28T08:09:01.186Z,5.63
2022-11-28T08:14:05.115Z,6.03
2022-11-28T08:19:08.426Z,5.07
2022-11-28T08:24:13.037Z,6.33
2022-11-28T08:29:16.435Z,5.67
2022-11-28T08:34:19.728Z,7.10
2022-11-28T08:39:25.313Z,6.73
2022-11-28T08:44:30.610Z,6.70
2022-11-28T08:49:34.015Z,8.27
2022-11-28T08:54:38.913Z,7.27
2022-11-28T08:59:42.321Z,6.57
2022-11-28T09:04:45.930Z,7.87
2022-11-28T09:09:50.487Z,8.03
2022-11-28T09:14:53.723Z,7.20
2022-11-28T09:19:57.072Z,7.60
2022-11-28T09:25:01.733Z,7.43
2022-11-28T09:30:05.452Z,10.43
2022-11-28T09:35:09.242Z,7.23
2022-11-28T09:40:18.110Z,7.47
2022-11-28T09:45:22.366Z,10.33
2022-11-28T09:50:26.735Z,9.67
2022-11-28T09:55:35.583Z,8.60
2022-11-28T10:00:39.648Z,8.80
2022-11-28T10:05:45.043Z,7.27
2022-11-28T10:10:54.247Z,7.63
2022-11-28T10:15:59.487Z,7.53
2022-11-28T10:21:05.244Z,7.30
2022-11-28T10:26:12.239Z,10.07
2022-11-28T10:31:17.078Z,10.90
2022-11-28T10:36:23.495Z,8.07
2022-11-28T10:41:30.314Z,7.87
2022-11-28T10:46:42.728Z,8.20
2022-11-28T10:51:49.884Z,8.60
2022-11-28T10:56:59.415Z,8.53
2022-11-28T11:02:05.348Z,9.83
2022-11-28T11:07:19.419Z,8.83
2022-11-28T11:12:27.560Z,9.70
2022-11-28T11:17:36.140Z,9.93
2022-11-28T11:22:39.720Z,9.20
2022-11-28T11:27:50.523Z,9.07
2022-11-28T11:32:54.147Z,7.80
2022-11-28T11:38:16.105Z,7.10
2022-11-28T11:43:31.644Z,7.70
2022-11-28T11:48:38.822Z,6.93
2022-11-28T11:53:42.096Z,7.37
2022-11-28T11:58:48.116Z,7.80
2022-11-28T12:03:55.354Z,8.33
2022-11-28T12:09:04.173Z,7.23
2022-11-28T12:14:20.733Z,10.37
2022-11-28T12:19:28.528Z,8.30
2022-11-28T12:24:34.686Z,13.20
2022-11-28T12:29:45.186Z,9.50
2022-11-28T12:34:54.787Z,8.80
2022-11-28T12:40:01.122Z,9.00
2022-11-28T12:45:15.685Z,11.57
2022-11-28T12:50:26.876Z,10.57
2022-11-28T12:55:35.459Z,18.40
2022-11-28T13:00:46.425Z,11.90
2022-11-28T13:05:55.692Z,8.93
2022-11-28T13:11:04.206Z,16.10
2022-11-28T13:16:15.121Z,9.23
2022-11-28T13:21:24.641Z,8.90
2022-11-28T13:26:35.155Z,10.67
2022-11-28T13:31:42.394Z,13.43
2022-11-28T13:47:48.034Z,9.03
2022-11-28T13:52:59.056Z,11.47
2022-11-28T13:58:11.040Z,12.80
2022-11-28T14:03:20.669Z,10.07
2022-11-28T14:08:28.339Z,9.53
2022-11-28T14:13:40.775Z,14.23
2022-11-28T14:18:57.332Z,9.13
2022-11-28T14:24:06.095Z,10.00
2022-11-28T14:29:24.169Z,9.60
2022-11-28T14:34:45.846Z,12.00
2022-11-28T14:39:51.127Z,11.83
2022-11-28T14:44:56.655Z,18.23
2022-11-28T14:50:20.633Z,7.60
2022-11-28T14:55:26.002Z,6.50
2022-11-28T15:00:30.994Z,8.23
2022-11-28T15:05:44.946Z,7.07
2022-11-28T15:10:52.614Z,8.10
2022-11-28T15:15:56.127Z,10.13
2022-11-28T15:21:01.405Z,9.93
2022-11-28T15:26:07.906Z,14.53
2022-11-28T15:31:20.105Z,14.43
2022-11-28T15:36:27.136Z,18.10
2022-11-28T15:41:32.139Z,13.27
2022-11-28T15:46:35.987Z,12.63
2022-11-28T15:51:39.202Z,11.90
2022-11-28T15:56:56.834Z,13.00
2022-11-28T16:02:02.491Z,13.27
2022-11-28T16:07:06.884Z,12.10
2022-11-28T16:12:15.395Z,20.93
2022-11-28T16:17:20.549Z,12.57
2022-11-28T16:22:28.805Z,13.97
2022-11-28T16:27:36.405Z,12.33
2022-11-28T16:32:40.255Z,12.93
2022-11-28T16:37:43.600Z,12.07
2022-11-28T16:42:54.184Z,14.47
2022-11-28T16:48:03.271Z,17.67
2022-11-28T16:53:06.817Z,12.57
2022-11-28T16:58:12.784Z,13.37
2022-11-28T17:03:40.738Z,16.90
2022-11-28T17:08:44.144Z,15.13
2022-11-28T17:13:48.722Z,8.77
2022-11-28T17:18:52.246Z,13.40
2022-11-28T17:23:55.594Z,15.93
2022-11-28T17:29:01.057Z,14.37
2022-11-28T17:34:04.423Z,15.93
2022-11-28T17:39:07.766Z,15.00
2022-11-28T17:44:16.445Z,12.17
2022-11-28T17:49:20.071Z,16.47
2022-11-28T17:54:26.064Z,13.70
2022-11-28T17:59:30.755Z,14.07
2022-11-28T18:04:37.527Z,9.53
2022-11-28T18:09:41.014Z,10.07
2022-11-28T18:14:45.649Z,15.67
2022-11-28T18:19:53.268Z,13.83
2022-11-28T18:25:00.667Z,14.00
2022-11-28T18:30:06.166Z,15.80
2022-11-28T18:35:10.119Z,15.40
2022-11-28T18:40:14.419Z,14.17
2022-11-28T18:45:19.004Z,12.83
2022-11-28T18:50:22.530Z,14.17
2022-11-28T18:55:26.233Z,13.73
2022-11-28T19:00:32.104Z,13.00
2022-11-28T19:05:39.243Z,13.47
2022-11-28T19:10:44.291Z,13.53
2022-11-28T19:15:48.938Z,16.17
2022-11-28T19:20:52.295Z,14.27
2022-11-28T19:25:56.185Z,14.20
2022-11-28T19:31:06.891Z,13.50
2022-11-28T19:36:11.641Z,13.23
2022-11-28T19:41:16.440Z,14.67
2022-11-28T19:46:21.085Z,16.27
2022-11-28T19:51:25.086Z,24.40
2022-11-28T19:56:28.816Z,23.67
2022-11-28T20:01:33.831Z,16.27
2022-11-28T20:06:38.049Z,16.13
2022-11-28T20:11:41.751Z,14.93
2022-11-28T20:16:49.281Z,14.90
2022-11-28T20:21:52.627Z,12.50
2022-11-28T20:26:56.967Z,11.97
2022-11-28T20:32:01.797Z,11.47
2022-11-28T20:37:05.213Z,9.87
2022-11-28T20:42:09.387Z,9.63
2022-11-28T20:47:14.135Z,11.13
2022-11-28T20:52:17.449Z,10.87
2022-11-28T20:57:22.408Z,10.07
2022-11-28T21:02:27.576Z,9.60
2022-11-28T21:07:31.568Z,10.13
2022-11-28T21:12:35.276Z,11.33
2022-11-28T21:17:40.215Z,10.63
2022-11-28T21:22:43.811Z,9.03
2022-11-28T21:27:47.283Z,8.57
2022-11-28T21:32:52.186Z,9.20
2022-11-28T21:37:57.255Z,8.63
2022-11-28T21:43:00.651Z,9.67
2022-11-28T21:48:05.841Z,8.10
2022-11-28T21:53:09.306Z,6.90
2022-11-28T21:58:13.419Z,7.80
2022-11-28T22:03:18.361Z,9.00
2022-11-28T22:08:22.051Z,9.40
2022-11-28T22:13:25.308Z,9.10
2022-11-28T22:18:31.159Z,9.50
2022-11-28T22:23:34.972Z,10.20
2022-11-28T22:28:39.139Z,9.17
2022-11-28T22:33:45.227Z,9.40
2022-11-28T22:38:49.228Z,10.00
2022-11-28T22:43:55.207Z,9.70
2022-11-28T22:49:01.673Z,8.83
2022-11-28T22:54:05.871Z,8.80
2022-11-28T22:59:12.246Z,9.83
2022-11-28T23:04:17.325Z,9.93
2022-11-28T23:09:21.196Z,9.80
2022-11-28T23:14:25.992Z,10.10
2022-11-28T23:19:31.162Z,10.57
2022-11-28T23:24:34.494Z,12.00
2022-11-28T23:29:38.367Z,10.60
2022-11-28T23:34:43.472Z,11.33
2022-11-28T23:39:47.989Z,11.50
2022-11-28T23:44:52.438Z,11.70
2022-11-28T23:49:57.391Z,11.50
2022-11-28T23:55:00.686Z,9.20
